Time;durP1;ratioP1;P1;durP2;ratioP2;P2;SDS_P1;SDS_P2;PMS_P1;PMS_P2;Temp;Humidity;BMP_temperature;BMP_pressure;BME280_temperature;BME280_humidity;BME280_pressure;Samples;Min_cycle;Max_cycle;Signal;HPM_P1;HPM_P2
2022/11/10 00:01:20;;;;;;;5.47;4.97;;;;;;;-143.84;84.17;45189.97;4987872;28;20527;-73
2022/11/10 00:03:49;;;;;;;7.60;4.63;;;;;;;-143.84;84.40;45216.63;4988454;28;21031;-72
2022/11/10 00:06:17;;;;;;;8.80;4.50;;;;;;;-143.84;84.52;45180.47;4988263;28;20454;-72
2022/11/10 00:08:44;;;;;;;6.90;4.50;;;;;;;-143.84;84.19;45172.84;4988839;28;20471;-72
2022/11/10 00:11:11;;;;;;;4.40;3.83;;;;;;;-143.84;84.54;45191.88;4990184;28;20884;-73
2022/11/10 00:16:59;;;;;;;5.97;4.10;;;;;;;-143.84;84.40;45178.56;4988618;28;20519;-72
2022/11/10 00:19:11;;;;;;;15.43;4.40;;;;;;;-143.84;84.10;45195.69;4988408;28;20491;-72
2022/11/10 00:21:39;;;;;;;6.40;4.20;;;;;;;-143.84;84.01;45228.06;4986997;28;20456;-72
2022/11/10 00:24:07;;;;;;;6.73;4.90;;;;;;;-143.84;83.95;45214.72;4988709;28;20522;-72
2022/11/10 00:26:34;;;;;;;8.17;4.80;;;;;;;-143.84;84.28;45205.22;4988423;28;20464;-73
2022/11/10 00:29:01;;;;;;;10.20;4.23;;;;;;;-143.84;84.31;45170.94;4988317;28;20460;-73
2022/11/10 00:31:28;;;;;;;4.70;4.30;;;;;;;-143.84;84.69;45218.53;4988250;28;20867;-73
2022/11/10 00:33:55;;;;;;;5.47;4.50;;;;;;;-143.84;84.86;45178.56;4988235;28;20516;-73
2022/11/10 00:36:23;;;;;;;5.93;3.90;;;;;;;-143.84;85.43;45228.06;4988350;28;20457;-72
2022/11/10 00:38:52;;;;;;;9.27;5.10;;;;;;;-143.84;85.14;45174.75;4985888;28;20445;-72
2022/11/10 00:41:19;;;;;;;6.30;5.17;;;;;;;-143.84;85.20;45212.84;4990903;28;20461;-72
2022/11/10 00:43:46;;;;;;;10.50;5.07;;;;;;;-143.84;85.30;45199.50;4990821;28;20465;-72
2022/11/10 00:46:14;;;;;;;11.30;4.33;;;;;;;-143.84;85.59;45203.31;4990801;28;20488;-72
2022/11/10 00:48:41;;;;;;;5.97;5.30;;;;;;;-143.84;85.66;45207.13;4995367;28;21014;-72
2022/11/10 00:51:10;;;;;;;6.77;5.27;;;;;;;-143.84;85.87;45180.47;4991495;28;20457;-73
2022/11/10 00:53:37;;;;;;;8.20;5.03;;;;;;;-143.84;85.93;45172.84;4978025;28;20521;-73
2022/11/10 00:56:06;;;;;;;4.97;4.40;;;;;;;-143.84;86.35;45207.13;4991865;28;20456;-72
2022/11/10 00:58:33;;;;;;;6.43;5.13;;;;;;;-143.84;86.47;45180.47;4991724;28;20458;-73
2022/11/10 01:01:04;;;;;;;12.10;4.40;;;;;;;-143.84;86.47;45199.50;4991929;28;21454;-72
2022/11/10 01:03:31;;;;;;;8.00;5.20;;;;;;;-143.84;86.51;45191.88;4992169;28;21048;-73
2022/11/10 01:05:59;;;;;;;5.20;4.80;;;;;;;-143.84;86.42;45216.63;5002252;28;20485;-72
2022/11/10 01:08:26;;;;;;;8.47;4.83;;;;;;;-143.84;86.08;45205.22;4995335;28;20463;-72
2022/11/10 01:11:01;;;;;;;7.67;4.70;;;;;;;-143.84;86.16;45218.53;4991313;28;20528;-72
2022/11/10 01:13:29;;;;;;;4.17;3.77;;;;;;;-143.84;86.08;45220.44;4991385;28;20460;-73
2022/11/10 01:15:56;;;;;;;7.00;4.53;;;;;;;-143.84;86.22;45201.41;4988078;28;20915;-73
2022/11/10 01:18:24;;;;;;;5.07;4.20;;;;;;;-143.84;86.14;45205.22;4991016;28;20524;-72
2022/11/10 01:20:51;;;;;;;7.93;4.30;;;;;;;-143.84;86.50;45212.84;4991214;28;20483;-72
2022/11/10 01:23:18;;;;;;;4.30;3.67;;;;;;;-143.84;86.42;45216.63;4997687;28;20544;-73
2022/11/10 01:25:46;;;;;;;4.30;4.00;;;;;;;-143.84;86.65;45197.59;4990938;28;20522;-72
2022/11/10 01:28:13;;;;;;;5.40;4.07;;;;;;;-143.84;86.74;45197.59;4993881;28;20464;-73
2022/11/10 01:30:41;;;;;;;4.17;3.70;;;;;;;-143.84;86.77;45224.25;4991444;28;20539;-72
2022/11/10 01:33:09;;;;;;;4.47;3.60;;;;;;;-143.84;86.60;45188.06;4993482;28;20468;-72
2022/11/10 01:35:36;;;;;;;4.23;3.77;;;;;;;-143.84;86.67;45203.31;4991937;28;20963;-73
2022/11/10 01:38:03;;;;;;;4.00;3.70;;;;;;;-143.84;86.74;45214.72;4992139;28;20488;-72
2022/11/10 01:40:30;;;;;;;4.37;3.87;;;;;;;-143.84;86.74;45228.06;4994770;28;21093;-73
2022/11/10 01:42:58;;;;;;;5.30;4.80;;;;;;;-143.84;86.65;45222.34;4994146;28;20507;-72
2022/11/10 01:45:52;;;;;;;4.17;3.83;;;;;;;-143.84;86.80;45205.22;4989201;28;20552;-72
2022/11/10 01:48:27;;;;;;;4.13;3.73;;;;;;;-143.84;86.80;45216.63;4990491;28;20484;-72
2022/11/10 01:50:55;;;;;;;4.80;4.17;;;;;;;-143.84;86.79;45214.72;4988722;28;20853;-73
2022/11/10 01:53:26;;;;;;;4.40;4.00;;;;;;;-143.84;86.98;45214.72;4989906;28;20453;-73
2022/11/10 01:55:56;;;;;;;5.33;3.83;;;;;;;-143.84;87.10;45203.31;4989913;28;20524;-73
2022/11/10 01:58:28;;;;;;;6.20;3.77;;;;;;;-143.84;87.19;45201.41;4988375;28;20457;-73
2022/11/10 02:00:57;;;;;;;3.77;3.43;;;;;;;-143.84;86.99;45193.78;4988468;28;20465;-72
2022/11/10 02:03:29;;;;;;;8.03;4.50;;;;;;;-143.84;87.50;45207.13;4992369;28;20965;-69
2022/11/10 02:05:56;;;;;;;3.47;3.27;;;;;;;-143.84;87.66;45205.22;4989892;28;20585;-69
2022/11/10 02:08:25;;;;;;;5.07;3.87;;;;;;;-143.84;87.75;45214.72;4986853;28;20478;-69
2022/11/10 02:10:52;;;;;;;3.87;3.57;;;;;;;-143.84;88.01;45178.56;4989808;28;20511;-69
2022/11/10 02:13:19;;;;;;;4.27;4.00;;;;;;;-143.84;87.92;45201.41;4992800;28;20457;-69
2022/11/10 02:15:47;;;;;;;5.03;3.70;;;;;;;-143.84;88.27;45188.06;4990275;28;20878;-69
2022/11/10 02:18:15;;;;;;;4.10;3.70;;;;;;;-143.84;88.19;45212.84;4990193;28;20465;-69
2022/11/10 02:20:46;;;;;;;9.57;3.03;;;;;;;-143.84;88.38;45220.44;4990358;28;20465;-69
2022/11/10 02:23:15;;;;;;;6.50;3.50;;;;;;;-143.84;88.20;45226.16;4989993;28;20519;-69
2022/11/10 02:25:42;;;;;;;7.30;3.83;;;;;;;-143.84;88.43;45209.03;4990214;28;20490;-69
2022/11/10 02:28:09;;;;;;;3.77;3.47;;;;;;;-143.84;88.46;45199.50;4990076;28;21260;-69
2022/11/10 02:30:36;;;;;;;3.93;3.20;;;;;;;-143.84;88.60;45212.84;4989844;28;20452;-69
2022/11/10 02:33:03;;;;;;;4.97;3.97;;;;;;;-143.84;88.56;45224.25;4990004;28;20518;-69
2022/11/10 02:35:30;;;;;;;4.57;4.17;;;;;;;-143.84;88.50;45205.22;4989672;28;20466;-69
2022/11/10 02:37:59;;;;;;;3.50;3.30;;;;;;;-143.84;88.50;45193.78;4989970;28;20510;-69
2022/11/10 02:40:26;;;;;;;3.90;3.57;;;;;;;-143.84;88.53;45199.50;4986364;28;20459;-69
2022/11/10 02:42:53;;;;;;;4.17;3.77;;;;;;;-143.84;88.41;45197.59;4997807;28;20456;-69
2022/11/10 02:45:20;;;;;;;4.23;3.70;;;;;;;-143.84;88.64;45212.84;4993431;28;21031;-69
2022/11/10 02:47:47;;;;;;;3.60;3.40;;;;;;;-143.84;88.86;45220.44;4991736;28;21017;-69
2022/11/10 02:50:15;;;;;;;4.57;4.10;;;;;;;-143.84;88.88;45212.84;4992767;28;20452;-69
2022/11/10 02:52:42;;;;;;;6.57;3.97;;;;;;;-143.84;88.89;45209.03;4989601;28;20463;-69
2022/11/10 02:55:11;;;;;;;3.93;3.53;;;;;;;-143.84;88.87;45239.50;4989913;28;20457;-69
2022/11/10 02:57:38;;;;;;;4.00;3.70;;;;;;;-143.84;88.85;45212.84;4994008;28;21035;-69
2022/11/10 03:00:07;;;;;;;3.47;3.17;;;;;;;-143.84;88.91;45228.06;4988453;28;20452;-69
2022/11/10 03:02:35;;;;;;;4.73;3.60;;;;;;;-143.84;88.93;45228.06;4988673;28;20473;-69
2022/11/10 03:05:02;;;;;;;3.50;3.30;;;;;;;-143.84;89.09;45214.72;4992027;28;20574;-69
2022/11/10 03:07:29;;;;;;;4.30;4.00;;;;;;;-143.84;88.93;45243.31;4987941;28;20453;-69
2022/11/10 03:09:56;;;;;;;4.00;3.27;;;;;;;-143.84;89.01;45193.78;4987095;28;21244;-68
2022/11/10 03:12:24;;;;;;;3.70;3.43;;;;;;;-143.84;88.98;45207.13;4989167;28;20512;-69
2022/11/10 03:14:52;;;;;;;3.93;3.10;;;;;;;-143.84;89.19;45220.44;4997110;28;20815;-69
2022/11/10 03:17:19;;;;;;;5.23;4.30;;;;;;;-143.84;89.13;45191.88;4994248;28;20461;-69
2022/11/10 03:19:46;;;;;;;3.50;3.13;;;;;;;-143.84;89.04;45214.72;4988982;28;20503;-69
2022/11/10 03:22:13;;;;;;;3.60;3.00;;;;;;;-143.84;88.96;45197.59;4992333;28;20946;-69
2022/11/10 03:24:40;;;;;;;4.07;3.77;;;;;;;-143.84;88.69;45231.88;4994792;28;20456;-69
2022/11/10 03:27:07;;;;;;;4.40;3.50;;;;;;;-143.84;88.93;45228.06;4992357;28;20484;-69
2022/11/10 03:29:36;;;;;;;3.90;3.60;;;;;;;-143.84;88.93;45199.50;4992439;28;20540;-69
2022/11/10 03:32:03;;;;;;;3.63;3.33;;;;;;;-143.84;89.16;45209.03;4992600;28;20522;-69
2022/11/10 03:34:30;;;;;;;4.50;3.37;;;;;;;-143.84;89.21;45212.84;4993105;28;20448;-69
2022/11/10 03:36:57;;;;;;;6.43;4.27;;;;;;;-143.84;89.26;45199.50;4989286;28;20962;-69
2022/11/10 03:39:24;;;;;;;4.23;3.93;;;;;;;-143.84;89.10;45212.84;4991604;28;20459;-69
2022/11/10 03:41:51;;;;;;;7.20;4.40;;;;;;;-143.84;88.93;45235.69;4994116;28;20970;-69
2022/11/10 03:44:19;;;;;;;6.10;4.67;;;;;;;-143.84;89.18;45207.13;4993891;28;20455;-69
2022/11/10 03:46:47;;;;;;;5.13;4.73;;;;;;;-143.84;89.00;45199.50;4992895;28;20479;-69
2022/11/10 03:49:14;;;;;;;5.43;3.63;;;;;;;-143.84;89.13;45197.59;4988704;28;20456;-69
2022/11/10 03:51:41;;;;;;;7.40;6.77;;;;;;;-143.84;89.07;45229.97;4988023;28;20514;-69
2022/11/10 03:54:08;;;;;;;26.47;23.77;;;;;;;-143.84;89.08;45210.94;4988693;28;20463;-69
2022/11/10 03:56:35;;;;;;;38.57;34.53;;;;;;;-143.84;88.92;45243.31;4988773;28;20527;-68
2022/11/10 03:59:03;;;;;;;29.13;26.07;;;;;;;-143.84;88.44;45220.44;4989170;28;20456;-69
2022/11/10 04:01:30;;;;;;;22.37;20.27;;;;;;;-143.84;88.33;45184.25;4988916;28;20465;-69
2022/11/10 04:03:58;;;;;;;14.37;9.70;;;;;;;-143.84;88.25;45222.34;4989012;28;20972;-69
2022/11/10 04:09:10;;;;;;;6.10;5.60;;;;;;;-143.84;87.73;45201.41;4987712;28;21168;-69
2022/11/10 04:17:07;;;;;;;8.93;6.27;;;;;;;-143.84;87.99;45207.13;4994146;28;21104;-69
2022/11/10 04:19:35;;;;;;;11.40;5.73;;;;;;;-143.84;88.54;45207.13;4992614;28;20456;-69
2022/11/10 04:22:02;;;;;;;5.77;5.37;;;;;;;-143.84;88.69;45212.84;4993037;28;20865;-69
2022/11/10 04:24:29;;;;;;;6.10;5.50;;;;;;;-143.84;88.77;45210.94;4992336;28;20460;-69
2022/11/10 04:26:57;;;;;;;6.10;5.30;;;;;;;-143.84;88.60;45218.53;4992514;28;20902;-69
2022/11/10 04:29:24;;;;;;;5.17;4.77;;;;;;;-143.84;88.69;45214.72;4992133;28;20466;-70
2022/11/10 04:31:51;;;;;;;13.60;6.67;;;;;;;-143.84;88.99;45222.34;4992950;28;20465;-69
2022/11/10 04:34:18;;;;;;;7.77;7.17;;;;;;;-143.84;88.60;45203.31;4992085;28;20498;-69
2022/11/10 04:36:46;;;;;;;8.10;7.10;;;;;;;-143.84;88.50;45218.53;4993437;28;20448;-70
2022/11/10 04:39:14;;;;;;;9.37;7.20;;;;;;;-143.84;88.20;45212.84;4993261;28;20463;-69
2022/11/10 04:41:41;;;;;;;9.77;5.57;;;;;;;-143.84;88.72;45235.69;4993526;28;20454;-70
2022/11/10 04:44:08;;;;;;;7.50;6.80;;;;;;;-143.84;88.86;45212.84;4990029;28;20525;-70
2022/11/10 04:46:37;;;;;;;8.00;7.40;;;;;;;-143.84;89.30;45224.25;4989288;28;20541;-68
2022/11/10 04:49:06;;;;;;;15.50;8.80;;;;;;;-143.84;89.51;45210.94;4991063;28;20485;-68
2022/11/10 04:51:34;;;;;;;9.77;8.97;;;;;;;-143.84;89.13;45186.16;4998457;28;20454;-68
2022/11/10 04:54:03;;;;;;;8.53;6.60;;;;;;;-143.84;89.47;45210.94;4995016;28;20459;-68
2022/11/10 04:56:30;;;;;;;8.57;7.77;;;;;;;-143.84;89.81;45233.78;4993866;28;20971;-68
2022/11/10 04:58:58;;;;;;;7.33;6.23;;;;;;;-143.84;89.73;45214.72;5004018;28;20445;-68
2022/11/10 05:01:26;;;;;;;7.10;6.60;;;;;;;-143.84;89.72;45205.22;4997911;28;20885;-68
2022/11/10 05:03:55;;;;;;;7.37;6.13;;;;;;;-143.84;89.61;45210.94;4997717;28;20587;-67
2022/11/10 05:06:22;;;;;;;7.93;7.13;;;;;;;-143.84;89.61;45197.59;4991805;28;20492;-67
2022/11/10 05:08:50;;;;;;;8.53;7.37;;;;;;;-143.84;89.65;45212.84;4990625;28;20455;-67
2022/11/10 05:11:18;;;;;;;7.30;6.57;;;;;;;-143.84;89.77;45218.53;4995404;28;20458;-67
2022/11/10 05:13:46;;;;;;;6.83;6.33;;;;;;;-143.84;89.94;45193.78;4994662;28;20511;-68
2022/11/10 05:16:13;;;;;;;7.43;6.77;;;;;;;-143.84;90.09;45193.78;4994659;28;20456;-67
2022/11/10 05:18:41;;;;;;;10.30;6.90;;;;;;;-143.84;90.15;45216.63;4992857;28;20452;-66
2022/11/10 05:21:08;;;;;;;9.93;6.87;;;;;;;-143.84;90.42;45220.44;5005504;28;20440;-67
2022/11/10 05:23:39;;;;;;;7.70;6.90;;;;;;;-143.84;90.67;45214.72;4991032;28;20518;-67
2022/11/10 05:26:07;;;;;;;8.23;6.57;;;;;;;-143.84;90.81;45186.16;4997001;28;21003;-72
2022/11/10 05:28:36;;;;;;;7.03;6.00;;;;;;;-143.84;91.46;45205.22;4996068;28;20519;-71
2022/11/10 05:31:03;;;;;;;13.37;7.53;;;;;;;-143.84;92.03;45186.16;4999782;28;20457;-69
2022/11/10 05:33:30;;;;;;;7.40;6.40;;;;;;;-143.84;92.29;45243.31;4998795;28;20502;-69
2022/11/10 05:35:58;;;;;;;7.50;6.23;;;;;;;-143.84;92.19;45216.63;4993007;28;20458;-69
2022/11/10 05:38:25;;;;;;;6.30;5.70;;;;;;;-143.84;92.23;45199.50;4993394;28;21032;-69
2022/11/10 05:40:52;;;;;;;11.90;8.17;;;;;;;-143.84;92.29;45218.53;4994933;28;20461;-68
2022/11/10 05:43:19;;;;;;;12.10;9.97;;;;;;;-143.84;92.57;45231.88;4999036;28;20444;-68
2022/11/10 05:45:48;;;;;;;16.40;11.03;;;;;;;-143.84;92.88;45207.13;4991822;28;20583;-69
2022/11/10 05:48:15;;;;;;;30.13;20.90;;;;;;;-143.84;92.88;45209.03;4995174;28;21056;-68
2022/11/10 05:50:43;;;;;;;24.83;18.50;;;;;;;-143.84;92.89;45186.16;4993414;28;20467;-69
2022/11/10 05:53:10;;;;;;;15.07;13.17;;;;;;;-143.84;93.23;45193.78;4991100;28;20453;-69
2022/11/10 05:55:37;;;;;;;13.53;11.20;;;;;;;-143.84;93.03;45201.41;4990911;28;20449;-69
2022/11/10 05:58:05;;;;;;;8.87;8.07;;;;;;;-143.84;93.56;45195.69;4991098;28;20454;-68
2022/11/10 06:00:32;;;;;;;10.60;9.50;;;;;;;-143.84;93.63;45224.25;4991854;28;21012;-69
2022/11/10 06:03:02;;;;;;;8.90;7.53;;;;;;;-143.84;93.77;45216.63;4990312;28;20457;-73
2022/11/10 06:05:31;;;;;;;11.57;7.80;;;;;;;-143.84;93.88;45188.06;4989227;28;21389;-73
2022/11/10 06:07:59;;;;;;;18.13;8.80;;;;;;;-143.84;94.63;45254.72;4988644;28;20515;-73
2022/11/10 06:10:26;;;;;;;10.97;7.83;;;;;;;-143.84;94.69;45195.69;4991108;28;21155;-73
2022/11/10 06:12:55;;;;;;;12.40;8.77;;;;;;;-143.84;95.12;45188.06;4989889;28;20474;-73
2022/11/10 06:15:23;;;;;;;7.00;6.37;;;;;;;-143.84;95.16;45220.44;4989915;28;20463;-72
2022/11/10 06:17:50;;;;;;;9.33;8.47;;;;;;;-143.84;95.19;45264.25;4990108;28;20465;-73
2022/11/10 06:20:19;;;;;;;9.90;8.80;;;;;;;-143.84;95.22;45191.88;4989985;28;20463;-69
2022/11/10 06:22:58;;;;;;;5.50;5.00;;;;;;;-143.84;94.75;45167.13;4992874;28;20467;-69
2022/11/10 06:25:26;;;;;;;8.00;5.63;;;;;;;-143.84;94.19;45201.41;4990469;28;20456;-69
2022/11/10 06:27:53;;;;;;;8.20;4.23;;;;;;;-143.84;93.00;45210.94;4990485;28;20495;-69
2022/11/10 06:30:20;;;;;;;3.60;3.40;;;;;;;-143.84;91.77;45165.22;4992374;28;20453;-69
2022/11/10 06:32:48;;;;;;;3.87;3.40;;;;;;;-143.84;90.67;45176.66;4992675;28;20587;-69
2022/11/10 06:35:15;;;;;;;4.00;3.43;;;;;;;-143.84;89.08;45188.06;4988527;28;20464;-69
2022/11/10 06:37:43;;;;;;;4.80;3.77;;;;;;;-143.84;88.00;45167.13;4989661;28;20523;-69
2022/11/10 06:40:13;;;;;;;4.90;3.37;;;;;;;-143.84;86.69;45176.66;4991386;28;20466;-69
2022/11/10 06:42:40;;;;;;;3.40;3.20;;;;;;;-143.84;86.11;45199.50;4994004;28;20485;-69
2022/11/10 06:45:08;;;;;;;7.53;3.57;;;;;;;-143.84;85.83;45178.56;4990557;28;20442;-69
2022/11/10 06:47:35;;;;;;;6.80;3.13;;;;;;;-143.84;84.97;45178.56;4996209;28;20497;-69
2022/11/10 06:50:02;;;;;;;3.90;3.70;;;;;;;-143.84;84.72;45155.69;4994761;28;20548;-69
2022/11/10 06:52:30;;;;;;;4.40;3.00;;;;;;;-143.84;81.49;45155.69;4988602;28;20960;-70
2022/11/10 06:54:59;;;;;;;4.17;3.40;;;;;;;-143.84;80.03;45186.16;4992062;28;20495;-69
2022/11/10 06:57:26;;;;;;;3.03;2.83;;;;;;;-143.84;78.98;45155.69;4997216;28;21047;-70
2022/11/10 06:59:54;;;;;;;7.53;3.43;;;;;;;-143.84;80.25;45155.69;4995924;28;20474;-70
2022/11/10 07:02:21;;;;;;;3.50;3.20;;;;;;;-143.84;79.41;45153.81;5000324;28;20464;-69
2022/11/10 07:04:49;;;;;;;3.27;2.97;;;;;;;-143.84;78.93;45155.69;4997565;28;20465;-70
2022/11/10 07:07:17;;;;;;;5.27;3.50;;;;;;;-143.84;76.83;45134.75;4989768;28;20497;-69
2022/11/10 07:09:44;;;;;;;3.57;3.27;;;;;;;-143.84;75.47;45150.00;4989772;28;20460;-70
2022/11/10 07:12:12;;;;;;;6.80;3.37;;;;;;;-143.84;74.59;45130.94;4993688;28;21063;-75
2022/11/10 07:14:39;;;;;;;6.90;3.60;;;;;;;-143.84;72.87;45180.47;4993214;28;20464;-75
2022/11/10 07:17:07;;;;;;;4.67;3.13;;;;;;;-143.84;68.51;45146.19;4992555;28;20462;-75
2022/11/10 07:19:34;;;;;;;3.17;2.87;;;;;;;-143.84;67.96;45134.75;4993677;28;20463;-75
2022/11/10 07:22:01;;;;;;;8.20;2.90;;;;;;;-143.84;66.57;45151.91;4992772;28;20459;-75
2022/11/10 07:24:29;;;;;;;3.13;2.93;;;;;;;-143.84;66.51;45144.28;4989599;28;20464;-75
2022/11/10 07:26:57;;;;;;;11.30;3.17;;;;;;;-143.84;66.75;45159.50;4989601;28;20488;-75
2022/11/10 07:29:26;;;;;;;2.70;2.50;;;;;;;-143.84;64.39;45142.38;4990262;28;20452;-75
2022/11/10 07:31:53;;;;;;;3.07;2.87;;;;;;;-143.84;64.91;45140.47;4995573;28;20523;-75
2022/11/10 07:34:20;;;;;;;3.60;3.17;;;;;;;-143.84;63.93;45144.28;4987916;28;20522;-75
2022/11/10 07:36:48;;;;;;;4.23;3.90;;;;;;;-143.84;63.28;45134.75;4988633;28;20456;-75
2022/11/10 07:39:15;;;;;;;4.83;2.93;;;;;;;-143.84;63.64;45146.19;4990546;28;20515;-75
2022/11/10 07:41:42;;;;;;;2.50;2.30;;;;;;;-143.84;61.55;45142.38;4992410;28;20448;-75
2022/11/10 07:44:09;;;;;;;2.73;2.53;;;;;;;-143.84;60.54;45144.28;4990684;28;20464;-75
2022/11/10 07:46:38;;;;;;;5.27;3.10;;;;;;;-143.84;59.58;45140.47;4988397;28;20491;-75
2022/11/10 07:49:05;;;;;;;4.80;2.70;;;;;;;-143.84;59.74;45111.91;4990037;28;21337;-75
2022/11/10 07:51:32;;;;;;;6.80;2.97;;;;;;;-143.84;58.73;45142.38;4995529;28;20506;-75
2022/11/10 07:54:00;;;;;;;7.37;3.20;;;;;;;-143.84;57.82;45136.66;4996056;28;20455;-75
2022/11/10 07:56:27;;;;;;;3.20;2.90;;;;;;;-143.84;58.87;45132.84;4993588;28;20452;-74
2022/11/10 07:58:54;;;;;;;3.80;2.63;;;;;;;-143.84;58.53;45138.56;4993915;28;20463;-75
2022/11/10 08:01:21;;;;;;;3.10;2.80;;;;;;;-143.84;59.62;45153.81;4992597;28;20515;-75
2022/11/10 08:03:50;;;;;;;3.07;2.73;;;;;;;-143.84;59.41;45142.38;4992679;28;20455;-74
2022/11/10 08:06:17;;;;;;;3.90;2.50;;;;;;;-143.84;58.36;45142.38;4994772;28;20452;-74
2022/11/10 08:08:46;;;;;;;7.30;3.93;;;;;;;-143.84;60.24;45132.84;4997617;28;20499;-74
2022/11/10 08:11:14;;;;;;;3.60;3.30;;;;;;;-143.84;58.39;45142.38;4993212;28;20969;-75
2022/11/10 08:13:41;;;;;;;3.10;2.80;;;;;;;-143.84;59.70;45110.00;4993122;28;20464;-74
2022/11/10 08:16:08;;;;;;;4.13;3.73;;;;;;;-143.84;59.16;45129.03;4992148;28;20459;-74
2022/11/10 08:18:36;;;;;;;3.63;3.43;;;;;;;-143.84;58.64;45142.38;4991754;28;20970;-74
2022/11/10 08:21:05;;;;;;;4.73;3.40;;;;;;;-143.84;59.22;45138.56;4992142;28;20459;-74
2022/11/10 08:23:33;;;;;;;7.67;3.67;;;;;;;-143.84;59.69;45142.38;4992422;28;20491;-70
2022/11/10 08:26:03;;;;;;;5.57;3.23;;;;;;;-143.84;59.65;45125.22;4993368;28;20947;-75
2022/11/10 08:28:30;;;;;;;3.37;3.17;;;;;;;-143.84;59.04;45146.19;4993652;28;20890;-74
2022/11/10 08:31:03;;;;;;;3.20;2.37;;;;;;;-143.84;58.13;45138.56;4993825;28;20443;-75
2022/11/10 08:33:33;;;;;;;3.93;2.70;;;;;;;-143.84;57.73;45151.91;4991946;28;20997;-75
2022/11/10 08:36:01;;;;;;;4.40;2.20;;;;;;;-143.84;57.39;45130.94;4992024;28;20456;-70
2022/11/10 08:38:30;;;;;;;13.70;3.23;;;;;;;-143.84;56.25;45148.09;4992746;28;21068;-75
2022/11/10 08:40:57;;;;;;;3.43;3.10;;;;;;;-143.84;55.34;45138.56;4992037;28;20463;-74
2022/11/10 08:43:25;;;;;;;4.43;2.60;;;;;;;-143.84;54.35;45134.75;4992132;28;20540;-75
2022/11/10 08:45:55;;;;;;;3.57;2.67;;;;;;;-143.84;52.83;45134.75;4995520;28;21010;-74
2022/11/10 08:48:23;;;;;;;3.20;2.23;;;;;;;-143.84;53.79;45148.09;4997317;28;21080;-74
2022/11/10 08:50:51;;;;;;;2.53;2.10;;;;;;;-143.84;52.90;45163.31;4998277;28;21049;-75
2022/11/10 08:53:20;;;;;;;3.17;2.70;;;;;;;-143.84;52.87;45130.94;5000305;28;20916;-74
2022/11/10 08:55:48;;;;;;;2.53;2.10;;;;;;;-143.84;52.31;45115.72;4999329;28;20444;-72
2022/11/10 08:58:17;;;;;;;7.03;6.43;;;;;;;-143.84;51.79;45110.00;5001168;28;20463;-74
2022/11/10 09:00:45;;;;;;;11.27;6.93;;;;;;;-143.84;51.92;45146.19;4995366;28;20526;-73
2022/11/10 09:03:14;;;;;;;2.20;2.10;;;;;;;-143.84;52.05;45130.94;4993553;28;20448;-78
2022/11/10 09:05:41;;;;;;;4.27;2.40;;;;;;;-143.84;52.05;45119.53;5002749;28;20456;-79
2022/11/10 09:08:10;;;;;;;2.50;2.30;;;;;;;-143.84;51.31;45104.28;4995420;28;20487;-73
2022/11/10 09:10:39;;;;;;;3.13;2.47;;;;;;;-143.84;51.66;45125.22;4992904;28;20507;-74
2022/11/10 09:13:08;;;;;;;2.30;2.10;;;;;;;-143.84;50.82;45129.03;4995535;28;20441;-72
2022/11/10 09:15:35;;;;;;;2.27;1.97;;;;;;;-143.84;50.53;45129.03;4994254;28;20456;-74
2022/11/10 09:18:05;;;;;;;2.57;2.37;;;;;;;-143.84;50.03;45108.09;4990031;28;20866;-74
2022/11/10 09:20:35;;;;;;;4.33;2.20;;;;;;;-143.84;49.29;45117.63;4992655;28;20460;-73
2022/11/10 09:23:05;;;;;;;2.63;2.43;;;;;;;-143.84;49.59;45089.06;4997219;28;20965;-72
2022/11/10 09:25:33;;;;;;;2.47;2.20;;;;;;;-143.84;48.85;45144.28;5005050;28;20443;-72
2022/11/10 09:28:00;;;;;;;2.37;2.17;;;;;;;-143.84;49.31;45108.09;5004175;28;20488;-70
2022/11/10 09:30:29;;;;;;;2.07;1.97;;;;;;;-143.84;50.26;45090.97;4991608;28;20459;-71
2022/11/10 09:32:57;;;;;;;3.60;2.73;;;;;;;-143.84;49.05;45125.22;4994358;28;20462;-71
2022/11/10 09:35:25;;;;;;;11.00;3.43;;;;;;;-143.84;47.17;45119.53;5000659;28;20488;-74
2022/11/10 09:37:52;;;;;;;3.83;2.57;;;;;;;-143.84;46.80;45108.09;4993676;28;20456;-78
2022/11/10 09:40:23;;;;;;;2.10;2.00;;;;;;;-143.84;48.04;45130.94;5007471;28;20463;-78
2022/11/10 09:42:55;;;;;;;4.40;2.00;;;;;;;-143.84;47.87;45117.63;4995255;28;20455;-80
2022/11/10 09:45:25;;;;;;;2.10;1.90;;;;;;;-143.84;48.50;45127.13;5000690;28;20532;-78
2022/11/10 09:48:00;;;;;;;3.03;2.30;;;;;;;-143.84;47.88;45123.34;4999416;28;20508;-71
2022/11/10 09:50:36;;;;;;;3.20;2.47;;;;;;;-143.84;49.17;45104.28;4990520;28;20464;-72
2022/11/10 09:53:06;;;;;;;4.53;2.10;;;;;;;-143.84;49.08;45121.44;4988431;28;21061;-71
2022/11/10 09:55:42;;;;;;;2.33;2.17;;;;;;;-143.84;49.07;45106.19;4990471;28;20974;-71
2022/11/10 09:58:12;;;;;;;2.77;2.63;;;;;;;-143.84;46.96;45104.28;4990965;28;20456;-77
2022/11/10 10:00:41;;;;;;;2.80;2.33;;;;;;;-143.84;49.55;45106.19;4990990;28;20527;-77
2022/11/10 10:03:18;;;;;;;5.80;3.53;;;;;;;-143.84;47.03;45127.13;4992622;28;20524;-77
2022/11/10 10:05:56;;;;;;;2.70;2.50;;;;;;;-143.84;47.27;45121.44;4992645;28;20429;-77
2022/11/10 10:08:32;;;;;;;2.30;2.10;;;;;;;-143.84;48.68;45117.63;4991185;28;20496;-73
2022/11/10 10:11:11;;;;;;;5.10;2.13;;;;;;;-143.84;49.73;45115.72;4990034;28;20506;-73
2022/11/10 10:13:56;;;;;;;2.33;2.23;;;;;;;-143.84;50.02;45134.75;4987438;28;21241;-73
2022/11/10 10:16:32;;;;;;;3.00;2.80;;;;;;;-143.84;50.34;45125.22;4988991;28;20871;-73
2022/11/10 10:19:12;;;;;;;2.90;2.70;;;;;;;-143.84;49.64;45138.56;4989544;28;20459;-73
2022/11/10 10:21:47;;;;;;;2.27;2.13;;;;;;;-143.84;50.23;45136.66;4992541;28;20464;-77
2022/11/10 10:24:16;;;;;;;2.30;2.03;;;;;;;-143.84;49.87;45108.09;4990705;28;21134;-76
2022/11/10 10:26:49;;;;;;;2.53;2.33;;;;;;;-143.84;50.33;45148.09;4990629;28;20522;-73
2022/11/10 10:29:20;;;;;;;3.30;3.00;;;;;;;-143.84;50.64;45110.00;4989637;28;20453;-73
2022/11/10 10:31:50;;;;;;;2.50;2.30;;;;;;;-143.84;50.56;45111.91;4990652;28;20527;-70
2022/11/10 10:34:30;;;;;;;3.20;2.90;;;;;;;-143.84;52.30;45127.13;5107112;27;20553;-72
2022/11/10 10:36:57;;;;;;;3.43;3.13;;;;;;;-143.84;52.30;45102.38;5107180;28;20448;-71
2022/11/10 10:39:29;;;;;;;4.53;4.00;;;;;;;-143.84;49.54;45123.34;5106929;28;21004;-72
2022/11/10 10:41:57;;;;;;;3.10;2.63;;;;;;;-143.84;49.54;45098.56;5106782;28;20489;-72
2022/11/10 10:44:25;;;;;;;5.43;3.10;;;;;;;-143.84;51.46;45130.94;5106851;28;21068;-72
2022/11/10 10:46:57;;;;;;;7.30;3.40;;;;;;;-143.84;52.97;45113.81;5106930;28;20436;-72
2022/11/10 10:49:26;;;;;;;2.87;2.60;;;;;;;-143.84;52.30;45150.00;5106904;28;20443;-74
2022/11/10 10:52:05;;;;;;;6.23;3.10;;;;;;;-143.84;53.89;45140.47;5106689;28;20439;-72
2022/11/10 10:54:34;;;;;;;3.07;2.87;;;;;;;-143.84;52.04;45119.53;5106786;28;20458;-72
2022/11/10 10:57:06;;;;;;;4.73;3.10;;;;;;;-143.84;51.74;45111.91;5106360;28;20504;-73
2022/11/10 10:59:34;;;;;;;5.07;3.00;;;;;;;-143.84;51.53;45115.72;5106191;28;20500;-72
2022/11/10 11:02:01;;;;;;;3.30;3.00;;;;;;;-143.84;53.49;45117.63;5105875;28;20969;-72
2022/11/10 11:04:36;;;;;;;4.83;4.00;;;;;;;-143.84;55.33;45134.75;5105532;28;20505;-72
2022/11/10 11:07:19;;;;;;;6.37;3.30;;;;;;;-143.84;54.61;45146.19;5106239;28;20442;-72
2022/11/10 11:09:46;;;;;;;4.77;3.27;;;;;;;-143.84;55.91;45134.75;5106191;28;20881;-71
2022/11/10 11:12:28;;;;;;;4.13;3.70;;;;;;;-143.84;56.84;45119.53;5104401;28;20500;-72
2022/11/10 11:15:18;;;;;;;2.93;2.57;;;;;;;-143.84;56.29;45121.44;5104757;28;20447;-78
2022/11/10 11:17:54;;;;;;;3.03;2.67;;;;;;;-143.84;56.95;45130.94;5105523;28;20814;-76
2022/11/10 11:20:28;;;;;;;4.83;3.20;;;;;;;-143.84;56.35;45102.38;5105059;28;20492;-77
2022/11/10 11:23:03;;;;;;;3.33;3.03;;;;;;;-143.84;56.30;45123.34;5105143;28;20435;-76
2022/11/10 11:25:36;;;;;;;5.20;2.70;;;;;;;-143.84;55.04;45132.84;5104530;28;20454;-76
2022/11/10 11:28:14;;;;;;;8.00;5.27;;;;;;;-143.84;56.07;45136.66;5104692;28;20439;-77
2022/11/10 11:30:51;;;;;;;8.33;3.37;;;;;;;-143.84;55.79;45130.94;5105911;28;20464;-76
2022/11/10 11:33:36;;;;;;;6.50;4.07;;;;;;;-143.84;56.42;45117.63;5105831;28;20992;-76
2022/11/10 11:36:14;;;;;;;5.17;2.97;;;;;;;-143.84;55.82;45136.66;5105933;28;20446;-76